Time;durP1;ratioP1;P1;durP2;ratioP2;P2;SDS_P1;SDS_P2;PMS_P1;PMS_P2;Temp;Humidity;BMP_temperature;BMP_pressure;BME280_temperature;BME280_humidity;BME280_pressure;Samples;Min_cycle;Max_cycle;Signal;HPM_P1;HPM_P2
2023/04/05 00:02:05;;;;;;;6.10;5.50;;;;;;;3.78;51.50;96013.31;6181617;23;20293;-89
2023/04/05 00:04:33;;;;;;;6.50;5.23;;;;;;;3.78;51.65;96006.50;6182113;23;20181;-88
2023/04/05 00:07:01;;;;;;;6.63;5.50;;;;;;;3.78;51.37;96008.25;6181561;23;20174;-88
2023/04/05 00:09:30;;;;;;;6.33;5.23;;;;;;;3.74;51.75;96000.03;6182301;23;20703;-89
2023/04/05 00:11:57;;;;;;;7.20;5.37;;;;;;;3.71;51.61;96002.81;6182132;23;20177;-89
2023/04/05 00:14:26;;;;;;;7.57;5.63;;;;;;;3.73;51.43;96003.50;6181684;23;20216;-88
2023/04/05 00:16:54;;;;;;;8.80;6.23;;;;;;;3.75;51.50;95994.00;6182060;23;20174;-89
2023/04/05 00:19:22;;;;;;;6.37;5.03;;;;;;;3.72;51.83;95996.00;6181998;23;20186;-88
2023/04/05 00:21:48;;;;;;;6.50;5.60;;;;;;;3.60;52.16;95997.81;6181947;23;20797;-89
2023/04/05 00:24:15;;;;;;;8.07;5.53;;;;;;;3.55;52.36;95996.53;6182387;23;20185;-88
2023/04/05 00:26:43;;;;;;;7.03;6.00;;;;;;;3.43;52.61;95998.34;6180999;23;20185;-87
2023/04/05 00:29:11;;;;;;;25.57;18.57;;;;;;;3.47;52.51;95994.59;6181187;23;20209;-88
2023/04/05 00:31:38;;;;;;;8.80;7.40;;;;;;;3.48;52.40;95994.47;6181082;23;20229;-87
2023/04/05 00:34:07;;;;;;;8.33;6.60;;;;;;;3.52;52.47;95991.69;6180954;23;20193;-87
2023/04/05 00:36:34;;;;;;;7.10;5.80;;;;;;;3.38;53.04;95993.63;6181427;23;20178;-88
2023/04/05 00:39:01;;;;;;;8.23;6.10;;;;;;;3.36;53.05;95985.28;6180876;23;20548;-89
2023/04/05 00:41:27;;;;;;;7.80;5.73;;;;;;;3.40;53.00;95990.94;6180485;23;20198;-87
2023/04/05 00:43:53;;;;;;;7.37;6.10;;;;;;;3.46;52.52;95982.84;6180884;23;20174;-88
2023/04/05 00:46:20;;;;;;;10.20;6.60;;;;;;;3.47;52.72;95986.97;6180600;23;20182;-88
2023/04/05 00:48:47;;;;;;;8.23;6.13;;;;;;;3.36;53.04;95982.75;6179910;23;20198;-86
2023/04/05 00:51:16;;;;;;;7.93;6.60;;;;;;;3.41;52.58;95979.84;6180953;23;20198;-87
2023/04/05 00:53:43;;;;;;;7.77;6.50;;;;;;;3.46;52.60;95973.44;6180596;23;20178;-87
2023/04/05 00:56:12;;;;;;;9.17;6.47;;;;;;;3.37;52.90;95978.47;6180701;23;20178;-86
2023/04/05 00:58:41;;;;;;;8.60;6.30;;;;;;;3.32;53.43;95976.28;6181001;23;20179;-87
2023/04/05 01:01:13;;;;;;;7.30;5.87;;;;;;;3.34;53.19;95976.16;6179975;23;20202;-88
2023/04/05 01:03:44;;;;;;;7.30;6.43;;;;;;;3.41;52.66;95975.56;6180979;23;20190;-88
2023/04/05 01:06:22;;;;;;;10.40;6.90;;;;;;;3.41;52.98;95972.22;6181436;23;20159;-87
2023/04/05 01:08:55;;;;;;;8.93;6.27;;;;;;;3.37;52.94;95969.09;6181326;23;20194;-87
2023/04/05 01:11:23;;;;;;;7.13;6.20;;;;;;;3.40;53.02;95970.59;6180970;23;20529;-87
2023/04/05 01:13:50;;;;;;;7.50;5.73;;;;;;;3.28;53.47;95966.47;6183300;23;20665;-87
2023/04/05 01:16:16;;;;;;;10.27;6.67;;;;;;;3.25;53.69;95965.00;6182921;23;20186;-87
2023/04/05 01:18:46;;;;;;;8.10;6.40;;;;;;;3.19;53.79;95959.56;6182461;23;20185;-86
2023/04/05 01:21:37;;;;;;;8.50;6.00;;;;;;;3.15;53.67;95955.66;6182639;23;20200;-87
2023/04/05 01:24:16;;;;;;;8.80;6.30;;;;;;;3.13;54.12;95956.59;6182362;23;20162;-86
2023/04/05 01:27:01;;;;;;;9.90;6.20;;;;;;;2.98;54.23;95949.38;6182640;23;20188;-87
2023/04/05 01:29:50;;;;;;;8.43;6.70;;;;;;;2.93;54.61;95951.44;6180205;23;20194;-87
2023/04/05 01:32:24;;;;;;;9.20;7.27;;;;;;;3.01;54.12;95949.13;6182605;23;20162;-87
2023/04/05 01:34:56;;;;;;;8.33;6.80;;;;;;;3.04;54.41;95939.53;6181871;23;20610;-87
2023/04/05 01:37:27;;;;;;;9.43;6.90;;;;;;;3.10;54.47;95948.38;6182510;23;20609;-88
2023/04/05 01:39:53;;;;;;;9.77;6.70;;;;;;;3.08;54.36;95942.59;6182112;23;20194;-87
2023/04/05 01:42:24;;;;;;;8.20;6.23;;;;;;;2.96;54.78;95941.03;6182477;23;20185;-87
2023/04/05 01:44:52;;;;;;;7.80;6.40;;;;;;;3.02;54.05;95938.84;6182742;23;20174;-86
2023/04/05 01:47:19;;;;;;;7.27;6.00;;;;;;;3.01;54.42;95936.41;6181710;23;20179;-87
2023/04/05 01:49:45;;;;;;;8.27;6.80;;;;;;;2.95;54.17;95930.06;6181960;23;20198;-88
2023/04/05 01:52:14;;;;;;;7.47;6.23;;;;;;;2.94;54.49;95933.53;6182205;23;20186;-86
2023/04/05 01:54:41;;;;;;;8.47;6.37;;;;;;;2.85;54.70;95928.38;6182081;23;20178;-87
2023/04/05 01:57:07;;;;;;;9.17;6.40;;;;;;;2.88;54.90;95923.88;6181821;23;20178;-87
2023/04/05 01:59:33;;;;;;;7.37;5.93;;;;;;;2.89;55.09;95928.00;6181361;23;20174;-86
2023/04/05 02:02:01;;;;;;;7.13;5.63;;;;;;;2.91;54.86;95923.59;6181140;23;20190;-86
2023/04/05 02:04:28;;;;;;;7.73;5.77;;;;;;;2.84;54.79;95927.56;6182144;23;20170;-87
2023/04/05 02:06:54;;;;;;;7.47;5.77;;;;;;;2.77;54.96;95927.22;6181959;23;20179;-86
2023/04/05 02:09:21;;;;;;;6.80;5.83;;;;;;;2.68;55.73;95925.44;6181270;23;20711;-87
2023/04/05 02:11:47;;;;;;;6.83;5.50;;;;;;;2.74;55.02;95921.56;6181819;23;20201;-86
2023/04/05 02:14:13;;;;;;;8.57;5.60;;;;;;;2.71;55.20;95922.63;6181979;23;20588;-86
2023/04/05 02:16:40;;;;;;;6.60;5.90;;;;;;;2.72;55.68;95918.34;6182318;23;20187;-87
2023/04/05 02:19:08;;;;;;;6.40;5.60;;;;;;;2.82;55.26;95916.72;6181781;23;20175;-86
2023/04/05 02:21:35;;;;;;;6.97;5.43;;;;;;;2.81;55.11;95916.81;6181810;23;20222;-88
2023/04/05 02:24:02;;;;;;;5.90;5.20;;;;;;;2.81;54.77;95917.63;6182143;23;20179;-88
2023/04/05 02:26:28;;;;;;;6.47;5.20;;;;;;;2.88;54.97;95923.06;6181915;23;20214;-88
2023/04/05 02:28:54;;;;;;;6.13;5.27;;;;;;;2.89;54.88;95912.75;6181726;23;20174;-87
2023/04/05 02:31:21;;;;;;;6.80;5.70;;;;;;;2.73;55.77;95909.78;6182081;23;20197;-86
2023/04/05 02:33:48;;;;;;;5.90;5.20;;;;;;;2.66;55.34;95901.06;6182093;23;20178;-87
2023/04/05 02:36:15;;;;;;;6.17;5.30;;;;;;;2.67;55.33;95907.75;6182204;23;20174;-88
2023/04/05 02:38:42;;;;;;;5.83;5.13;;;;;;;2.53;55.53;95900.38;6181588;23;20185;-87
2023/04/05 02:41:10;;;;;;;6.10;5.33;;;;;;;2.59;55.35;95898.16;6181672;23;20197;-88
2023/04/05 02:43:36;;;;;;;8.77;5.27;;;;;;;2.51;56.10;95897.13;6181542;23;20185;-86
2023/04/05 02:46:03;;;;;;;7.57;5.43;;;;;;;2.59;55.57;95900.72;6181791;23;20175;-86
2023/04/05 02:48:29;;;;;;;6.57;5.17;;;;;;;2.70;55.01;95895.59;6180995;23;20177;-87
2023/04/05 02:50:56;;;;;;;6.30;4.67;;;;;;;2.84;54.71;95902.16;6181843;23;20209;-86
2023/04/05 02:53:23;;;;;;;5.57;5.07;;;;;;;2.85;55.74;95896.13;6181721;23;20247;-86
2023/04/05 02:55:53;;;;;;;8.83;5.37;;;;;;;2.82;55.34;95896.38;6181647;23;20189;-88
2023/04/05 02:58:20;;;;;;;6.87;5.60;;;;;;;2.79;55.68;95888.97;6181347;23;20212;-86
2023/04/05 03:00:49;;;;;;;6.70;6.00;;;;;;;2.64;56.18;95885.91;6181026;23;20190;-87
2023/04/05 03:03:16;;;;;;;7.30;6.50;;;;;;;2.47;56.75;95891.50;6181252;23;20178;-88
2023/04/05 03:05:42;;;;;;;7.00;6.30;;;;;;;2.38;57.18;95889.66;6182041;23;20173;-87
2023/04/05 03:08:17;;;;;;;7.30;6.60;;;;;;;2.38;57.78;95894.75;6181193;23;20295;-87
2023/04/05 03:10:45;;;;;;;9.07;7.20;;;;;;;2.52;56.91;95894.47;6180569;23;20208;-86
2023/04/05 03:13:12;;;;;;;7.70;6.50;;;;;;;2.57;56.80;95889.03;6181879;23;20482;-87
2023/04/05 03:15:40;;;;;;;8.63;7.27;;;;;;;2.64;56.66;95885.91;6181658;23;20178;-88
2023/04/05 03:18:06;;;;;;;8.50;6.30;;;;;;;2.65;56.62;95885.00;6181269;23;20178;-88
2023/04/05 03:20:35;;;;;;;7.30;6.40;;;;;;;2.67;56.95;95879.78;6181670;23;20194;-87
2023/04/05 03:23:02;;;;;;;9.33;6.77;;;;;;;2.61;57.13;95887.88;6180659;23;20174;-87
2023/04/05 03:25:28;;;;;;;8.33;6.80;;;;;;;2.60;57.34;95891.34;6181561;23;20252;-87
2023/04/05 03:27:56;;;;;;;9.73;7.03;;;;;;;2.65;57.04;95879.09;6181189;23;20668;-88
2023/04/05 03:30:23;;;;;;;8.13;6.67;;;;;;;2.60;57.14;95883.72;6181295;23;20198;-89
2023/04/05 03:32:49;;;;;;;7.73;6.57;;;;;;;2.67;57.21;95875.50;6182250;23;20178;-86
2023/04/05 03:35:18;;;;;;;8.53;6.77;;;;;;;2.62;56.83;95877.59;6181642;23;20178;-88
2023/04/05 03:37:44;;;;;;;9.83;6.83;;;;;;;2.66;57.26;95878.97;6181135;23;20174;-87
2023/04/05 03:40:11;;;;;;;9.93;6.40;;;;;;;2.74;56.80;95876.63;6181778;23;20198;-87
2023/04/05 03:42:38;;;;;;;7.33;6.60;;;;;;;2.77;56.70;95878.13;6181064;23;20186;-86
2023/04/05 03:45:07;;;;;;;9.20;6.20;;;;;;;2.72;56.99;95878.47;6181253;23;20209;-87
2023/04/05 03:47:34;;;;;;;9.83;6.27;;;;;;;2.76;57.00;95876.50;6181338;23;20177;-86
2023/04/05 03:50:01;;;;;;;7.17;6.47;;;;;;;2.72;56.92;95882.75;6181112;23;20549;-87
2023/04/05 03:52:27;;;;;;;8.63;6.60;;;;;;;2.69;57.14;95881.25;6180844;23;20174;-86
2023/04/05 03:54:54;;;;;;;8.17;7.33;;;;;;;2.63;57.31;95878.41;6181147;23;20182;-86
2023/04/05 03:57:21;;;;;;;9.03;6.80;;;;;;;2.56;57.75;95877.25;6180822;23;20543;-87
2023/04/05 03:59:47;;;;;;;9.37;6.87;;;;;;;2.64;57.45;95877.47;6180734;23;20540;-86
2023/04/05 04:02:34;;;;;;;8.33;6.57;;;;;;;2.59;57.76;95877.03;6180698;23;20178;-88
2023/04/05 04:05:01;;;;;;;9.13;6.90;;;;;;;2.62;57.70;95880.16;6181561;23;20162;-87
2023/04/05 04:07:27;;;;;;;10.00;7.13;;;;;;;2.65;57.51;95874.81;6181623;23;20214;-87
2023/04/05 04:09:55;;;;;;;8.80;7.33;;;;;;;2.72;57.46;95867.50;6181167;23;20198;-86
2023/04/05 04:12:21;;;;;;;10.10;6.57;;;;;;;2.74;57.09;95878.34;6180847;23;20646;-86
2023/04/05 04:14:48;;;;;;;8.27;6.47;;;;;;;2.77;57.24;95875.56;6181385;23;20178;-87
2023/04/05 04:17:27;;;;;;;9.37;6.63;;;;;;;2.81;57.55;95873.59;6180941;23;20179;-87
2023/04/05 04:19:54;;;;;;;11.10;7.50;;;;;;;2.78;57.55;95877.19;6180554;23;20189;-87
2023/04/05 04:22:21;;;;;;;10.57;7.70;;;;;;;2.66;57.70;95870.53;6181514;23;20178;-87
2023/04/05 04:24:48;;;;;;;9.10;7.47;;;;;;;2.65;57.68;95869.75;6180937;23;20652;-86
2023/04/05 04:27:15;;;;;;;9.63;7.40;;;;;;;2.67;57.90;95872.16;6181054;23;20163;-86
2023/04/05 04:29:46;;;;;;;10.47;7.37;;;;;;;2.71;57.84;95876.84;6178656;23;20186;-88
2023/04/05 04:32:15;;;;;;;11.33;7.33;;;;;;;2.67;57.40;95872.97;6181242;23;20742;-88
2023/04/05 04:34:45;;;;;;;9.07;7.47;;;;;;;2.61;57.98;95870.09;6181343;23;20233;-89
2023/04/05 04:37:17;;;;;;;13.97;7.57;;;;;;;2.63;57.69;95871.59;6181741;23;20558;-86
2023/04/05 04:39:46;;;;;;;8.07;7.27;;;;;;;2.60;58.36;95881.19;6180824;23;20190;-86
2023/04/05 04:42:12;;;;;;;7.93;6.63;;;;;;;2.59;57.98;95871.94;6181075;23;20205;-87
2023/04/05 04:44:42;;;;;;;11.33;7.17;;;;;;;2.59;57.64;95871.94;6181038;23;20181;-88
2023/04/05 04:47:12;;;;;;;8.67;7.03;;;;;;;2.55;58.09;95873.91;6183217;23;20178;-87
2023/04/05 04:49:41;;;;;;;8.97;7.50;;;;;;;2.53;58.03;95873.22;6182275;23;20633;-89
2023/04/05 04:52:11;;;;;;;11.33;7.90;;;;;;;2.55;58.22;95873.91;6183618;23;20213;-88
2023/04/05 04:54:41;;;;;;;11.97;7.20;;;;;;;2.62;58.01;95872.53;6182525;23;20170;-89
2023/04/05 04:57:08;;;;;;;10.13;7.37;;;;;;;2.53;58.50;95873.22;6180349;23;20165;-87
2023/04/05 04:59:34;;;;;;;8.10;6.63;;;;;;;2.57;57.79;95872.06;6180280;23;20175;-87
2023/04/05 05:02:02;;;;;;;8.03;6.87;;;;;;;2.59;58.34;95870.22;6182007;23;20185;-87
2023/04/05 05:04:31;;;;;;;7.80;6.57;;;;;;;2.55;57.29;95871.38;6182734;23;20175;-89
2023/04/05 05:06:57;;;;;;;8.03;5.93;;;;;;;2.55;57.01;95873.09;6181857;23;20265;-88
2023/04/05 05:09:25;;;;;;;8.87;6.53;;;;;;;2.60;56.85;95874.38;6184040;23;20182;-87
2023/04/05 05:11:55;;;;;;;8.30;7.40;;;;;;;2.68;56.76;95873.78;6184559;23;20197;-88
2023/04/05 05:14:29;;;;;;;12.93;6.37;;;;;;;2.66;56.42;95870.53;6184749;23;20158;-88
2023/04/05 05:16:57;;;;;;;7.10;6.20;;;;;;;2.61;56.07;95873.44;6185047;23;20498;-87
2023/04/05 05:19:24;;;;;;;8.07;6.07;;;;;;;2.63;56.13;95873.31;6184453;23;20178;-88
2023/04/05 05:21:52;;;;;;;7.37;5.80;;;;;;;2.72;55.85;95870.03;6184325;23;20225;-86
2023/04/05 05:24:19;;;;;;;6.23;5.63;;;;;;;2.80;55.53;95872.00;6185115;23;20705;-87
2023/04/05 05:26:46;;;;;;;8.20;5.90;;;;;;;2.90;55.10;95873.66;6183279;23;20186;-88
2023/04/05 05:29:13;;;;;;;11.33;5.70;;;;;;;2.67;55.17;95869.63;6183367;23;20185;-84
2023/04/05 05:31:39;;;;;;;10.87;6.30;;;;;;;2.66;55.32;95873.91;6183283;23;20842;-88
2023/04/05 05:34:06;;;;;;;6.07;5.07;;;;;;;2.76;55.58;95869.69;6183267;23;20185;-86
2023/04/05 05:36:36;;;;;;;7.67;5.77;;;;;;;2.90;55.25;95878.75;6187912;23;20261;-87
2023/04/05 05:39:03;;;;;;;5.83;5.27;;;;;;;3.03;55.14;95871.78;6189739;23;20235;-86
2023/04/05 05:41:30;;;;;;;8.53;5.50;;;;;;;2.93;55.01;95881.06;6186291;23;20190;-86
2023/04/05 05:43:58;;;;;;;8.33;5.17;;;;;;;2.90;54.63;95881.28;6184645;23;20178;-87
2023/04/05 05:46:25;;;;;;;12.93;7.20;;;;;;;2.79;54.52;95883.91;6185774;23;20174;-89
2023/04/05 05:48:52;;;;;;;9.93;7.00;;;;;;;2.65;54.52;95884.19;6184957;23;20201;-88
2023/04/05 05:51:21;;;;;;;9.03;6.50;;;;;;;2.61;54.89;95891.25;6185240;23;20198;-88
2023/04/05 05:53:48;;;;;;;6.93;5.17;;;;;;;2.40;54.55;95898.78;6186968;23;20586;-88
2023/04/05 05:56:17;;;;;;;7.37;5.17;;;;;;;2.18;55.39;95898.03;6185546;23;20525;-88
2023/04/05 05:58:43;;;;;;;5.20;4.70;;;;;;;2.43;55.32;95895.22;6184020;23;20506;-88
2023/04/05 06:01:11;;;;;;;8.37;6.67;;;;;;;2.58;56.46;95898.28;6184595;23;20202;-87
2023/04/05 06:03:37;;;;;;;10.53;8.03;;;;;;;2.66;54.81;95899.31;6184165;23;20210;-86
2023/04/05 06:06:07;;;;;;;7.23;5.63;;;;;;;2.70;54.55;95898.13;6184283;23;20170;-88
2023/04/05 06:08:34;;;;;;;13.63;8.17;;;;;;;2.89;54.84;95894.13;6183575;23;20178;-88
2023/04/05 06:11:00;;;;;;;16.00;9.60;;;;;;;2.85;54.14;95898.69;6182898;23;20253;-85
2023/04/05 06:13:26;;;;;;;17.17;12.07;;;;;;;2.97;54.13;95900.22;6183702;23;20178;-87
2023/04/05 06:15:53;;;;;;;17.73;11.70;;;;;;;3.02;54.72;95897.34;6183194;23;20174;-87
2023/04/05 06:18:21;;;;;;;15.97;8.23;;;;;;;3.12;54.20;95900.75;6182255;23;20182;-87
2023/04/05 06:20:47;;;;;;;13.33;9.90;;;;;;;3.23;53.78;95902.44;6181895;23;20744;-88
2023/04/05 06:23:14;;;;;;;9.50;7.57;;;;;;;3.19;53.54;95904.41;6182216;23;20170;-88
2023/04/05 06:25:40;;;;;;;8.17;5.83;;;;;;;2.97;54.15;95907.88;6182030;23;20189;-86
2023/04/05 06:28:08;;;;;;;7.50;5.13;;;;;;;3.01;54.01;95903.34;6182161;23;20179;-86
2023/04/05 06:30:35;;;;;;;7.47;4.93;;;;;;;3.09;53.90;95901.78;6182878;23;20209;-88
2023/04/05 06:33:04;;;;;;;6.97;4.83;;;;;;;3.15;53.53;95902.22;6182640;23;20189;-88
2023/04/05 06:35:32;;;;;;;7.00;4.80;;;;;;;3.23;53.69;95902.44;6184765;23;20174;-88
2023/04/05 06:38:00;;;;;;;6.03;4.90;;;;;;;3.23;54.11;95899.91;6181249;23;20184;-89
2023/04/05 06:40:27;;;;;;;6.10;5.07;;;;;;;3.31;53.72;95900.06;6183211;23;20265;-88
2023/04/05 06:42:54;;;;;;;7.00;5.27;;;;;;;3.22;53.44;95900.81;6181862;23;20520;-88
2023/04/05 06:45:23;;;;;;;6.17;4.80;;;;;;;3.45;53.46;95897.22;6182068;23;20513;-89
2023/04/05 06:47:50;;;;;;;6.20;5.47;;;;;;;3.69;53.24;95899.47;6180759;23;20178;-89
2023/04/05 06:50:18;;;;;;;8.53;5.80;;;;;;;3.63;52.74;95900.00;6180359;23;20194;-89
2023/04/05 06:52:48;;;;;;;7.73;5.50;;;;;;;3.69;53.39;95892.66;6180795;23;20205;-89
2023/04/05 06:55:15;;;;;;;6.00;5.20;;;;;;;3.84;52.00;95899.97;6180612;23;20159;-87
2023/04/05 06:57:43;;;;;;;7.10;4.97;;;;;;;3.90;51.75;95899.44;6180449;23;20217;-87
2023/04/05 07:00:12;;;;;;;6.37;5.00;;;;;;;4.00;51.69;95896.03;6182397;23;20198;-87
2023/04/05 07:02:39;;;;;;;6.57;5.33;;;;;;;4.28;51.31;95899.56;6182531;23;20174;-88
2023/04/05 07:05:06;;;;;;;5.10;4.60;;;;;;;4.52;50.68;95894.13;6182518;23;20178;-87
2023/04/05 07:07:32;;;;;;;6.67;5.20;;;;;;;4.47;50.12;95896.28;6183141;23;20178;-88
2023/04/05 07:10:00;;;;;;;5.60;4.90;;;;;;;4.24;49.97;95890.56;6178157;23;20268;-87
2023/04/05 07:12:26;;;;;;;5.67;4.90;;;;;;;4.30;49.82;95889.25;6176571;23;20202;-87
2023/04/05 07:14:56;;;;;;;7.83;4.60;;;;;;;4.23;49.75;95891.53;6181415;23;20490;-87
2023/04/05 07:17:22;;;;;;;5.60;5.10;;;;;;;4.34;49.92;95893.16;6179785;23;20178;-86
2023/04/05 07:19:49;;;;;;;6.53;5.17;;;;;;;4.51;49.29;95883.13;6179397;23;20516;-85
2023/04/05 07:22:15;;;;;;;6.23;4.93;;;;;;;4.49;48.28;95885.00;6181068;23;20209;-86
2023/04/05 07:24:43;;;;;;;7.47;4.77;;;;;;;4.61;48.96;95887.47;6176586;23;20498;-86
2023/04/05 07:27:10;;;;;;;5.33;4.83;;;;;;;4.75;48.39;95884.50;6180984;23;20529;-86
2023/04/05 07:29:39;;;;;;;5.03;4.53;;;;;;;4.95;47.33;95887.88;6182794;23;20793;-86
2023/04/05 07:32:06;;;;;;;4.87;4.47;;;;;;;5.34;47.57;95889.47;6182362;23;20221;-86
2023/04/05 07:34:35;;;;;;;5.67;4.77;;;;;;;5.64;47.44;95885.91;6183110;23;20182;-87
2023/04/05 07:37:02;;;;;;;6.00;4.60;;;;;;;5.94;46.58;95889.22;6181626;23;20325;-87
2023/04/05 07:39:31;;;;;;;5.23;4.47;;;;;;;6.29;46.03;95891.06;6180413;23;20170;-86
2023/04/05 07:41:58;;;;;;;5.73;4.50;;;;;;;6.05;45.13;95889.81;6181398;23;20197;-86
2023/04/05 07:44:29;;;;;;;5.00;4.50;;;;;;;6.16;45.98;95888.81;6182050;23;20196;-86
2023/04/05 07:47:04;;;;;;;6.67;4.60;;;;;;;6.28;44.92;95890.25;6182685;23;20162;-87
2023/04/05 07:49:43;;;;;;;24.70;17.03;;;;;;;6.74;45.41;95886.75;6183218;23;20252;-86
2023/04/05 07:52:09;;;;;;;7.73;5.20;;;;;;;6.90;43.39;95893.78;6183579;23;20213;-86
2023/04/05 07:54:38;;;;;;;6.90;4.50;;;;;;;7.12;43.06;95895.09;6184131;23;20217;-87
2023/04/05 07:57:05;;;;;;;4.97;4.43;;;;;;;7.38;42.67;95898.50;6184330;23;20229;-88
2023/04/05 07:59:35;;;;;;;5.33;4.57;;;;;;;7.49;41.66;95898.28;6184196;23;20174;-87
2023/04/05 08:02:02;;;;;;;6.13;3.97;;;;;;;7.44;40.65;95897.09;6183806;23;20485;-86
2023/04/05 08:04:28;;;;;;;5.60;4.27;;;;;;;7.38;41.14;95897.69;6183941;23;20198;-86
2023/04/05 08:06:55;;;;;;;5.03;4.37;;;;;;;7.35;40.97;95896.22;6182947;23;20225;-87
2023/04/05 08:09:21;;;;;;;6.93;4.07;;;;;;;7.36;40.43;95891.91;6184564;23;20178;-86
2023/04/05 08:11:50;;;;;;;4.77;4.20;;;;;;;7.29;41.16;95889.16;6184289;23;20290;-87
2023/04/05 08:14:16;;;;;;;13.47;5.17;;;;;;;7.45;40.93;95898.72;6182732;23;20178;-86
2023/04/05 08:16:46;;;;;;;5.67;4.67;;;;;;;7.46;40.82;95895.19;6183837;23;20174;-86
2023/04/05 08:19:14;;;;;;;8.90;4.83;;;;;;;7.77;40.62;95893.78;6182963;23;20176;-88
2023/04/05 08:21:40;;;;;;;6.30;4.53;;;;;;;7.75;40.54;95900.81;6186368;23;20190;-88
2023/04/05 08:24:07;;;;;;;12.03;4.93;;;;;;;7.89;40.12;95897.69;6186451;23;20237;-88
2023/04/05 08:26:34;;;;;;;4.80;4.30;;;;;;;7.80;40.09;95893.50;6185856;23;20186;-87
2023/04/05 08:29:00;;;;;;;5.30;4.50;;;;;;;7.76;39.95;95897.31;6184364;23;20669;-87
2023/04/05 08:31:27;;;;;;;7.33;4.77;;;;;;;8.03;40.12;95898.91;6185333;23;20541;-87
2023/04/05 08:33:55;;;;;;;6.73;4.83;;;;;;;8.52;39.55;95901.69;6184917;23;20182;-86
2023/04/05 08:36:21;;;;;;;4.90;4.50;;;;;;;8.97;39.52;95894.41;6186923;23;20184;-87
2023/04/05 08:38:48;;;;;;;6.30;4.63;;;;;;;8.96;38.81;95892.81;6185519;23;20257;-87
2023/04/05 08:41:18;;;;;;;12.13;5.13;;;;;;;9.18;38.90;95893.97;6186108;23;20252;-87
2023/04/05 08:44:06;;;;;;;;;;;;;;;;;;;;;
2023/04/05 08:46:34;;;;;;;8.37;4.77;;;;;;;8.60;39.14;95892.25;6186329;23;20249;-87
2023/04/05 08:49:06;;;;;;;10.17;4.47;;;;;;;9.03;38.93;95884.47;6184816;23;20179;-86
2023/04/05 08:51:37;;;;;;;8.67;4.53;;;;;;;8.82;38.74;95888.31;6186068;23;20197;-88
2023/04/05 08:54:04;;;;;;;5.40;4.30;;;;;;;8.56;38.65;95892.72;6184806;23;20677;-86
2023/04/05 08:56:33;;;;;;;5.87;4.10;;;;;;;8.85;37.92;95880.25;6185440;23;20209;-88
2023/04/05 08:59:03;;;;;;;5.47;4.47;;;;;;;9.50;37.86;95884.63;6187500;23;20237;-86
2023/04/05 09:01:31;;;;;;;5.37;4.87;;;;;;;10.12;37.23;95885.63;6186119;23;20545;-87
2023/04/05 09:04:01;;;;;;;7.83;4.50;;;;;;;9.76;36.70;95887.00;6188496;23;20189;-85
2023/04/05 09:06:29;;;;;;;9.53;3.80;;;;;;;9.42;34.77;95890.59;6187924;23;20162;-87
2023/04/05 09:08:57;;;;;;;6.03;3.87;;;;;;;8.47;35.97;95888.50;6184518;23;20189;-86
2023/04/05 09:11:24;;;;;;;11.00;4.30;;;;;;;8.37;35.78;95896.34;6185798;23;20206;-88
2023/04/05 09:13:50;;;;;;;4.67;4.17;;;;;;;8.48;35.73;95888.34;6187203;23;20653;-87
2023/04/05 09:16:17;;;;;;;6.40;4.13;;;;;;;8.63;35.67;95891.94;6184505;23;20204;-88
2023/04/05 09:18:44;;;;;;;5.93;3.80;;;;;;;9.42;36.47;95890.59;6186317;23;20517;-87
2023/04/05 09:21:10;;;;;;;6.23;4.10;;;;;;;10.18;35.46;95879.00;6186252;23;20190;-87
2023/04/05 09:23:52;;;;;;;6.83;4.10;;;;;;;10.70;34.27;95877.50;6184586;23;20189;-86
2023/04/05 09:26:18;;;;;;;8.27;4.70;;;;;;;11.01;33.26;95876.66;6185654;23;20661;-87
2023/04/05 09:28:45;;;;;;;9.67;4.30;;;;;;;11.12;32.32;95875.47;6184434;23;20193;-86
2023/04/05 09:31:30;;;;;;;6.70;4.73;;;;;;;10.23;32.33;95876.75;6184981;23;20202;-86
2023/04/05 09:33:58;;;;;;;4.47;4.07;;;;;;;9.78;33.15;95882.50;6181742;23;20162;-87
2023/04/05 09:36:24;;;;;;;4.00;3.63;;;;;;;9.59;32.84;95883.66;6183362;23;20178;-87
2023/04/05 09:38:52;;;;;;;4.20;3.80;;;;;;;9.96;32.93;95881.34;6182821;23;20178;-87
2023/04/05 09:41:19;;;;;;;7.07;4.20;;;;;;;9.21;33.89;95883.38;6183281;23;20194;-86
2023/04/05 09:43:45;;;;;;;6.13;4.30;;;;;;;8.98;33.83;95882.38;6183756;23;20178;-87
2023/04/05 09:46:31;;;;;;;4.13;3.73;;;;;;;8.97;33.77;95881.56;6183820;23;20185;-87
2023/04/05 09:48:57;;;;;;;4.83;3.67;;;;;;;9.21;34.02;95880.00;6183341;23;20158;-88
2023/04/05 09:51:31;;;;;;;5.63;4.23;;;;;;;9.70;33.10;95880.75;6184545;23;20277;-88
2023/04/05 09:54:00;;;;;;;5.53;4.10;;;;;;;10.36;33.91;95880.41;6183096;23;20173;-87
2023/04/05 09:56:28;;;;;;;4.63;3.73;;;;;;;10.90;33.51;95875.28;6182757;23;20196;-87
2023/04/05 09:59:00;;;;;;;4.57;3.90;;;;;;;10.54;31.13;95876.78;6182269;23;20178;-88
2023/04/05 10:01:27;;;;;;;4.60;4.10;;;;;;;10.72;31.69;95872.19;6181499;23;20186;-86
2023/04/05 10:03:54;;;;;;;5.37;4.67;;;;;;;10.95;31.39;95869.63;6183513;23;20261;-87
2023/04/05 10:06:20;;;;;;;5.90;4.00;;;;;;;10.68;32.44;95869.16;6182974;23;20175;-87
2023/04/05 10:08:47;;;;;;;7.17;3.87;;;;;;;11.20;33.20;95865.09;6182413;23;20182;-87
2023/04/05 10:11:19;;;;;;;5.53;4.07;;;;;;;11.57;32.88;95861.69;6183786;23;20721;-87
2023/04/05 10:14:00;;;;;;;5.87;4.20;;;;;;;10.83;32.16;95866.63;6182792;23;20162;-84
2023/04/05 10:16:29;;;;;;;4.97;3.47;;;;;;;10.42;31.87;95868.63;6183560;23;20162;-88
2023/04/05 10:18:56;;;;;;;4.03;3.60;;;;;;;10.48;32.01;95865.38;6182583;23;20697;-88
2023/04/05 10:21:26;;;;;;;4.07;3.60;;;;;;;10.76;31.67;95863.16;6182636;23;20205;-87
2023/04/05 10:23:59;;;;;;;4.37;3.97;;;;;;;10.64;30.89;95861.91;6182942;23;20625;-87
2023/04/05 10:26:39;;;;;;;4.23;3.83;;;;;;;10.89;31.59;95863.38;6183026;23;20186;-87
2023/04/05 10:29:11;;;;;;;5.73;3.67;;;;;;;11.08;31.38;95865.50;6183197;23;20158;-87
2023/04/05 10:31:45;;;;;;;4.83;3.83;;;;;;;11.30;31.64;95852.78;6184402;23;20201;-88
2023/04/05 10:34:20;;;;;;;4.57;4.00;;;;;;;11.37;32.04;95854.47;6182695;23;20158;-87
2023/04/05 10:36:50;;;;;;;4.27;3.87;;;;;;;10.78;31.04;95850.09;6182379;23;20691;-86
2023/04/05 10:39:26;;;;;;;5.00;3.60;;;;;;;10.79;32.13;95851.69;6183047;23;20545;-87
2023/04/05 10:41:59;;;;;;;3.53;3.23;;;;;;;11.27;32.20;95846.19;6182861;23;20194;-87
2023/04/05 10:44:26;;;;;;;6.67;5.93;;;;;;;11.74;31.72;95856.22;6182865;23;20159;-87
2023/04/05 10:46:54;;;;;;;8.43;6.00;;;;;;;11.89;31.17;95850.31;6182804;23;20557;-87
2023/04/05 10:49:22;;;;;;;4.83;4.33;;;;;;;11.77;32.38;95852.50;6183542;23;20174;-86
2023/04/05 10:51:50;;;;;;;4.97;3.70;;;;;;;11.45;30.70;95839.91;6182096;23;20518;-87
2023/04/05 10:54:19;;;;;;;4.37;3.97;;;;;;;11.34;31.51;95836.78;6182848;23;20596;-86
2023/04/05 10:56:46;;;;;;;4.93;3.97;;;;;;;11.35;32.07;95837.59;6183736;23;20237;-87
2023/04/05 10:59:15;;;;;;;4.30;3.90;;;;;;;11.69;32.50;95844.84;6182566;23;20711;-86
2023/04/05 11:01:42;;;;;;;6.40;3.70;;;;;;;12.07;32.10;95837.84;6183048;23;20206;-86
2023/04/05 11:04:13;;;;;;;3.97;3.60;;;;;;;12.21;31.10;95829.28;6183638;23;20782;-87
2023/04/05 11:06:41;;;;;;;4.23;3.73;;;;;;;11.35;30.68;95835.78;6183102;23;20558;-87
2023/04/05 11:09:11;;;;;;;5.10;3.87;;;;;;;10.65;30.81;95832.63;6182742;23;20256;-88
2023/04/05 11:11:41;;;;;;;3.80;3.33;;;;;;;10.63;31.57;95837.94;6183279;23;20198;-86
2023/04/05 11:14:20;;;;;;;7.03;4.00;;;;;;;11.07;31.69;95832.97;6182287;23;20168;-87
2023/04/05 11:16:48;;;;;;;11.57;4.37;;;;;;;10.77;30.48;95843.34;6182974;23;20170;-87
2023/04/05 11:19:17;;;;;;;6.70;4.27;;;;;;;10.98;31.03;95834.00;6183389;23;20627;-86
2023/04/05 11:21:44;;;;;;;4.20;3.80;;;;;;;11.40;30.87;95827.53;6183268;23;20349;-87
2023/04/05 11:24:14;;;;;;;4.63;3.30;;;;;;;11.79;31.24;95829.91;6183523;23;20185;-86
2023/04/05 11:26:54;;;;;;;6.20;3.87;;;;;;;12.16;30.65;95823.03;6182045;23;20186;-87
2023/04/05 11:29:49;;;;;;;9.93;3.63;;;;;;;11.98;29.90;95834.53;6183352;23;20513;-87
2023/04/05 11:32:16;;;;;;;5.63;4.17;;;;;;;11.80;29.67;95823.78;6182464;23;20209;-86
2023/04/05 11:34:43;;;;;;;10.70;4.20;;;;;;;11.55;29.83;95822.41;6181888;23;20239;-88
2023/04/05 11:37:09;;;;;;;4.67;4.17;;;;;;;11.23;31.10;95815.78;6184239;23;20204;-86
2023/04/05 11:39:37;;;;;;;14.20;9.57;;;;;;;11.21;31.20;95822.88;6182966;23;20178;-87
2023/04/05 11:42:07;;;;;;;24.77;17.10;;;;;;;11.31;31.37;95826.81;6182294;23;20373;-87
2023/04/05 11:44:42;;;;;;;6.00;4.60;;;;;;;11.52;30.74;95815.03;6182547;23;20181;-87
2023/04/05 11:47:10;;;;;;;4.17;3.50;;;;;;;11.46;30.36;95813.16;6181368;23;20174;-87
2023/04/05 11:49:39;;;;;;;6.23;4.83;;;;;;;11.32;29.85;95810.38;6182157;23;20241;-86